sensor_id;sensor_type;location;lat;lon;timestamp;temperature;humidity
42095;DHT22;27753;55.724;37.612;2023-04-01T00:00:18;2.40;99.90
42095;DHT22;27753;55.724;37.612;2023-04-01T00:02:45;2.40;99.90
42095;DHT22;27753;55.724;37.612;2023-04-01T00:05:12;2.40;99.90
42095;DHT22;27753;55.724;37.612;2023-04-01T00:07:39;2.40;99.90
42095;DHT22;27753;55.724;37.612;2023-04-01T00:10:07;2.50;99.90
42095;DHT22;27753;55.724;37.612;2023-04-01T00:12:34;2.40;99.90
42095;DHT22;27753;55.724;37.612;2023-04-01T00:15:00;2.50;99.90
42095;DHT22;27753;55.724;37.612;2023-04-01T00:17:26;2.50;99.90
42095;DHT22;27753;55.724;37.612;2023-04-01T00:19:55;2.50;99.90
42095;DHT22;27753;55.724;37.612;2023-04-01T00:22:21;2.50;99.90
42095;DHT22;27753;55.724;37.612;2023-04-01T00:24:47;2.50;99.90
42095;DHT22;27753;55.724;37.612;2023-04-01T00:27:14;2.50;99.90
42095;DHT22;27753;55.724;37.612;2023-04-01T00:29:44;2.50;99.90
42095;DHT22;27753;55.724;37.612;2023-04-01T00:32:12;2.50;99.90
42095;DHT22;27753;55.724;37.612;2023-04-01T00:34:38;2.50;99.90
42095;DHT22;27753;55.724;37.612;2023-04-01T00:37:06;2.50;99.90
42095;DHT22;27753;55.724;37.612;2023-04-01T00:39:32;2.50;99.90
42095;DHT22;27753;55.724;37.612;2023-04-01T00:41:59;2.40;99.90
42095;DHT22;27753;55.724;37.612;2023-04-01T00:44:33;2.50;99.90
42095;DHT22;27753;55.724;37.612;2023-04-01T00:47:00;2.50;99.90
42095;DHT22;27753;55.724;37.612;2023-04-01T00:49:55;2.50;99.90
42095;DHT22;27753;55.724;37.612;2023-04-01T00:52:23;2.50;99.90
42095;DHT22;27753;55.724;37.612;2023-04-01T00:54:55;2.50;99.90
42095;DHT22;27753;55.724;37.612;2023-04-01T00:57:29;2.50;99.90
42095;DHT22;27753;55.724;37.612;2023-04-01T00:59:57;2.40;99.90
42095;DHT22;27753;55.724;37.612;2023-04-01T01:02:23;2.40;99.90
42095;DHT22;27753;55.724;37.612;2023-04-01T01:04:49;2.40;99.90
42095;DHT22;27753;55.724;37.612;2023-04-01T01:07:45;2.40;99.90
42095;DHT22;27753;55.724;37.612;2023-04-01T01:10:35;2.40;99.90
42095;DHT22;27753;55.724;37.612;2023-04-01T01:18:43;2.20;99.90
42095;DHT22;27753;55.724;37.612;2023-04-01T01:21:55;2.30;99.90
42095;DHT22;27753;55.724;37.612;2023-04-01T01:24:11;2.20;99.90
42095;DHT22;27753;55.724;37.612;2023-04-01T01:35:38;2.30;99.90
42095;DHT22;27753;55.724;37.612;2023-04-01T01:38:14;2.30;99.90
42095;DHT22;27753;55.724;37.612;2023-04-01T01:40:43;2.40;99.90
42095;DHT22;27753;55.724;37.612;2023-04-01T01:43:14;2.40;99.90
42095;DHT22;27753;55.724;37.612;2023-04-01T01:45:46;2.50;99.90
42095;DHT22;27753;55.724;37.612;2023-04-01T01:48:13;2.60;99.90
42095;DHT22;27753;55.724;37.612;2023-04-01T01:50:40;2.60;99.90
42095;DHT22;27753;55.724;37.612;2023-04-01T01:53:09;2.50;99.90
42095;DHT22;27753;55.724;37.612;2023-04-01T01:55:38;2.40;99.90
42095;DHT22;27753;55.724;37.612;2023-04-01T01:58:31;2.30;99.90
42095;DHT22;27753;55.724;37.612;2023-04-01T02:01:03;2.30;99.90
42095;DHT22;27753;55.724;37.612;2023-04-01T02:03:34;2.30;99.90
42095;DHT22;27753;55.724;37.612;2023-04-01T02:06:04;2.20;99.90
42095;DHT22;27753;55.724;37.612;2023-04-01T02:08:36;2.30;99.90
42095;DHT22;27753;55.724;37.612;2023-04-01T02:11:09;2.30;99.90
42095;DHT22;27753;55.724;37.612;2023-04-01T02:16:23;2.20;99.90
42095;DHT22;27753;55.724;37.612;2023-04-01T02:18:53;2.20;99.90
42095;DHT22;27753;55.724;37.612;2023-04-01T02:21:23;2.20;99.90
42095;DHT22;27753;55.724;37.612;2023-04-01T02:23:50;2.20;99.90
42095;DHT22;27753;55.724;37.612;2023-04-01T02:26:17;2.30;99.90
42095;DHT22;27753;55.724;37.612;2023-04-01T02:28:45;2.30;99.90
42095;DHT22;27753;55.724;37.612;2023-04-01T02:31:13;2.40;99.90
42095;DHT22;27753;55.724;37.612;2023-04-01T02:33:41;2.40;99.90
42095;DHT22;27753;55.724;37.612;2023-04-01T02:36:12;2.40;99.90
42095;DHT22;27753;55.724;37.612;2023-04-01T02:38:39;2.50;99.90
42095;DHT22;27753;55.724;37.612;2023-04-01T02:41:05;2.50;99.90
42095;DHT22;27753;55.724;37.612;2023-04-01T02:43:31;2.50;99.90
42095;DHT22;27753;55.724;37.612;2023-04-01T02:45:57;2.50;99.90
42095;DHT22;27753;55.724;37.612;2023-04-01T02:48:23;2.50;99.90
42095;DHT22;27753;55.724;37.612;2023-04-01T02:50:49;2.50;99.90
42095;DHT22;27753;55.724;37.612;2023-04-01T02:53:16;2.60;99.90
42095;DHT22;27753;55.724;37.612;2023-04-01T02:55:42;2.70;99.90
42095;DHT22;27753;55.724;37.612;2023-04-01T02:58:08;2.80;99.90
42095;DHT22;27753;55.724;37.612;2023-04-01T03:00:34;2.70;99.90
42095;DHT22;27753;55.724;37.612;2023-04-01T03:03:00;2.60;99.90
42095;DHT22;27753;55.724;37.612;2023-04-01T03:05:26;2.60;99.90
42095;DHT22;27753;55.724;37.612;2023-04-01T03:07:52;2.40;99.90
42095;DHT22;27753;55.724;37.612;2023-04-01T03:10:18;2.30;99.90
42095;DHT22;27753;55.724;37.612;2023-04-01T03:12:44;2.30;99.90
42095;DHT22;27753;55.724;37.612;2023-04-01T03:15:11;2.40;99.90
42095;DHT22;27753;55.724;37.612;2023-04-01T03:17:38;2.40;99.90
42095;DHT22;27753;55.724;37.612;2023-04-01T03:20:05;2.50;99.90
42095;DHT22;27753;55.724;37.612;2023-04-01T03:22:31;2.50;99.90
42095;DHT22;27753;55.724;37.612;2023-04-01T03:24:57;2.60;99.90
42095;DHT22;27753;55.724;37.612;2023-04-01T03:27:23;2.50;99.90
42095;DHT22;27753;55.724;37.612;2023-04-01T03:29:49;2.50;99.90
42095;DHT22;27753;55.724;37.612;2023-04-01T03:32:15;2.50;99.90
42095;DHT22;27753;55.724;37.612;2023-04-01T03:34:41;2.60;99.90
42095;DHT22;27753;55.724;37.612;2023-04-01T03:37:07;2.60;99.90
42095;DHT22;27753;55.724;37.612;2023-04-01T03:39:32;2.60;99.90
42095;DHT22;27753;55.724;37.612;2023-04-01T03:41:58;2.60;99.90
42095;DHT22;27753;55.724;37.612;2023-04-01T03:44:25;2.60;99.90
42095;DHT22;27753;55.724;37.612;2023-04-01T03:46:51;2.60;99.90
42095;DHT22;27753;55.724;37.612;2023-04-01T03:49:17;2.60;99.90
42095;DHT22;27753;55.724;37.612;2023-04-01T03:51:43;2.60;99.90
42095;DHT22;27753;55.724;37.612;2023-04-01T03:54:10;2.60;99.90
42095;DHT22;27753;55.724;37.612;2023-04-01T03:56:37;2.60;99.90
42095;DHT22;27753;55.724;37.612;2023-04-01T03:59:05;2.70;99.90
42095;DHT22;27753;55.724;37.612;2023-04-01T04:01:31;2.70;99.90
42095;DHT22;27753;55.724;37.612;2023-04-01T04:03:57;2.70;99.90
42095;DHT22;27753;55.724;37.612;2023-04-01T04:06:24;2.70;99.90
42095;DHT22;27753;55.724;37.612;2023-04-01T04:08:50;2.70;99.90
42095;DHT22;27753;55.724;37.612;2023-04-01T04:11:16;2.80;99.90
42095;DHT22;27753;55.724;37.612;2023-04-01T04:13:43;2.70;99.90
42095;DHT22;27753;55.724;37.612;2023-04-01T04:16:11;2.80;99.90
42095;DHT22;27753;55.724;37.612;2023-04-01T04:18:37;2.80;99.90
42095;DHT22;27753;55.724;37.612;2023-04-01T04:21:03;2.80;99.90
42095;DHT22;27753;55.724;37.612;2023-04-01T04:23:30;2.80;99.90
42095;DHT22;27753;55.724;37.612;2023-04-01T04:26:03;2.80;99.90
42095;DHT22;27753;55.724;37.612;2023-04-01T04:28:29;2.80;99.90
42095;DHT22;27753;55.724;37.612;2023-04-01T04:30:55;2.80;99.90
42095;DHT22;27753;55.724;37.612;2023-04-01T04:33:22;2.90;99.90
42095;DHT22;27753;55.724;37.612;2023-04-01T04:35:49;2.90;99.90
42095;DHT22;27753;55.724;37.612;2023-04-01T04:38:15;3.00;99.90
42095;DHT22;27753;55.724;37.612;2023-04-01T04:40:42;3.00;99.90
42095;DHT22;27753;55.724;37.612;2023-04-01T04:43:10;3.00;99.90
42095;DHT22;27753;55.724;37.612;2023-04-01T04:45:37;3.00;99.90
42095;DHT22;27753;55.724;37.612;2023-04-01T04:48:03;3.00;99.90
42095;DHT22;27753;55.724;37.612;2023-04-01T04:50:29;3.00;99.90
42095;DHT22;27753;55.724;37.612;2023-04-01T04:52:55;3.00;99.90
42095;DHT22;27753;55.724;37.612;2023-04-01T04:55:21;3.10;99.90
42095;DHT22;27753;55.724;37.612;2023-04-01T04:57:47;3.10;99.90
42095;DHT22;27753;55.724;37.612;2023-04-01T05:00:13;3.10;99.90
42095;DHT22;27753;55.724;37.612;2023-04-01T05:02:40;3.10;99.90
42095;DHT22;27753;55.724;37.612;2023-04-01T05:05:06;3.10;99.90
42095;DHT22;27753;55.724;37.612;2023-04-01T05:07:33;3.20;99.90
42095;DHT22;27753;55.724;37.612;2023-04-01T05:09:59;3.20;99.90
42095;DHT22;27753;55.724;37.612;2023-04-01T05:12:25;3.30;99.90
42095;DHT22;27753;55.724;37.612;2023-04-01T05:14:51;3.40;99.90
42095;DHT22;27753;55.724;37.612;2023-04-01T05:17:17;3.40;99.90
42095;DHT22;27753;55.724;37.612;2023-04-01T05:19:43;3.50;99.90
42095;DHT22;27753;55.724;37.612;2023-04-01T05:22:09;3.60;99.90
42095;DHT22;27753;55.724;37.612;2023-04-01T05:24:34;3.60;99.90
42095;DHT22;27753;55.724;37.612;2023-04-01T05:27:00;3.60;99.90
42095;DHT22;27753;55.724;37.612;2023-04-01T05:29:26;3.50;99.90
42095;DHT22;27753;55.724;37.612;2023-04-01T05:31:52;3.50;99.90
42095;DHT22;27753;55.724;37.612;2023-04-01T05:34:18;3.60;99.90
42095;DHT22;27753;55.724;37.612;2023-04-01T05:36:45;3.70;99.90
42095;DHT22;27753;55.724;37.612;2023-04-01T05:39:11;3.70;99.90
42095;DHT22;27753;55.724;37.612;2023-04-01T05:41:38;3.70;99.90
42095;DHT22;27753;55.724;37.612;2023-04-01T05:44:04;3.80;99.90
42095;DHT22;27753;55.724;37.612;2023-04-01T05:46:31;3.80;99.90
42095;DHT22;27753;55.724;37.612;2023-04-01T05:48:57;3.80;99.90
42095;DHT22;27753;55.724;37.612;2023-04-01T05:51:23;3.80;99.90
42095;DHT22;27753;55.724;37.612;2023-04-01T05:53:49;3.80;99.90
42095;DHT22;27753;55.724;37.612;2023-04-01T05:56:15;3.80;99.90
42095;DHT22;27753;55.724;37.612;2023-04-01T05:58:41;3.80;99.90
42095;DHT22;27753;55.724;37.612;2023-04-01T06:01:10;3.90;99.90
42095;DHT22;27753;55.724;37.612;2023-04-01T06:03:39;4.10;99.90
42095;DHT22;27753;55.724;37.612;2023-04-01T06:06:16;4.20;99.90
42095;DHT22;27753;55.724;37.612;2023-04-01T06:08:53;4.30;99.90
42095;DHT22;27753;55.724;37.612;2023-04-01T06:11:25;4.40;99.90
42095;DHT22;27753;55.724;37.612;2023-04-01T06:17:05;4.60;99.90
42095;DHT22;27753;55.724;37.612;2023-04-01T06:19:57;4.80;99.90
42095;DHT22;27753;55.724;37.612;2023-04-01T06:22:34;4.90;99.90
42095;DHT22;27753;55.724;37.612;2023-04-01T06:25:43;5.10;99.90
42095;DHT22;27753;55.724;37.612;2023-04-01T06:31:16;5.30;99.90
42095;DHT22;27753;55.724;37.612;2023-04-01T06:39:51;5.30;99.90
42095;DHT22;27753;55.724;37.612;2023-04-01T06:42:45;5.30;99.90
42095;DHT22;27753;55.724;37.612;2023-04-01T06:45:33;5.40;99.90
42095;DHT22;27753;55.724;37.612;2023-04-01T06:48:35;5.30;99.90
42095;DHT22;27753;55.724;37.612;2023-04-01T06:51:32;5.20;99.90
42095;DHT22;27753;55.724;37.612;2023-04-01T06:54:09;5.20;99.90
42095;DHT22;27753;55.724;37.612;2023-04-01T06:56:41;5.30;99.90
42095;DHT22;27753;55.724;37.612;2023-04-01T06:59:20;5.30;99.90
42095;DHT22;27753;55.724;37.612;2023-04-01T07:04:46;5.20;99.90
42095;DHT22;27753;55.724;37.612;2023-04-01T07:07:35;5.40;99.90
42095;DHT22;27753;55.724;37.612;2023-04-01T07:10:09;5.60;99.90
42095;DHT22;27753;55.724;37.612;2023-04-01T07:12:48;5.80;99.90
42095;DHT22;27753;55.724;37.612;2023-04-01T07:15:20;6.00;99.90
42095;DHT22;27753;55.724;37.612;2023-04-01T07:17:54;6.10;99.90
42095;DHT22;27753;55.724;37.612;2023-04-01T07:20:31;6.20;99.90
42095;DHT22;27753;55.724;37.612;2023-04-01T07:23:04;6.20;99.90
42095;DHT22;27753;55.724;37.612;2023-04-01T07:25:44;6.40;99.90
42095;DHT22;27753;55.724;37.612;2023-04-01T07:28:13;6.50;99.90
42095;DHT22;27753;55.724;37.612;2023-04-01T07:33:58;7.00;99.90
42095;DHT22;27753;55.724;37.612;2023-04-01T07:36:35;7.40;99.50
42095;DHT22;27753;55.724;37.612;2023-04-01T07:41:51;7.70;98.20
42095;DHT22;27753;55.724;37.612;2023-04-01T07:44:44;7.90;97.50
42095;DHT22;27753;55.724;37.612;2023-04-01T07:53:10;9.20;95.20
42095;DHT22;27753;55.724;37.612;2023-04-01T07:55:42;9.50;94.20
42095;DHT22;27753;55.724;37.612;2023-04-01T07:58:39;9.50;93.60
42095;DHT22;27753;55.724;37.612;2023-04-01T08:01:15;9.60;92.90
42095;DHT22;27753;55.724;37.612;2023-04-01T08:06:53;9.60;92.10
42095;DHT22;27753;55.724;37.612;2023-04-01T08:14:51;10.20;91.50
42095;DHT22;27753;55.724;37.612;2023-04-01T08:20:59;10.50;90.20
42095;DHT22;27753;55.724;37.612;2023-04-01T08:23:30;10.70;88.90
42095;DHT22;27753;55.724;37.612;2023-04-01T08:28:39;12.00;86.60
42095;DHT22;27753;55.724;37.612;2023-04-01T08:31:16;13.20;82.30
42095;DHT22;27753;55.724;37.612;2023-04-01T08:33:46;13.80;76.50
42095;DHT22;27753;55.724;37.612;2023-04-01T08:38:44;15.10;71.60
42095;DHT22;27753;55.724;37.612;2023-04-01T09:07:13;16.20;55.50
42095;DHT22;27753;55.724;37.612;2023-04-01T09:13:24;15.00;59.50
42095;DHT22;27753;55.724;37.612;2023-04-01T09:18:59;16.40;55.90
42095;DHT22;27753;55.724;37.612;2023-04-01T09:27:25;17.40;53.60
42095;DHT22;27753;55.724;37.612;2023-04-01T09:33:09;17.80;51.10
42095;DHT22;27753;55.724;37.612;2023-04-01T09:38:41;18.90;48.80
42095;DHT22;27753;55.724;37.612;2023-04-01T09:41:30;19.60;48.00
42095;DHT22;27753;55.724;37.612;2023-04-01T09:44:04;20.00;47.30
42095;DHT22;27753;55.724;37.612;2023-04-01T09:55:15;20.10;45.10
42095;DHT22;27753;55.724;37.612;2023-04-01T10:06:46;22.40;41.40
42095;DHT22;27753;55.724;37.612;2023-04-01T10:17:33;22.30;39.50
42095;DHT22;27753;55.724;37.612;2023-04-01T10:22:50;21.00;40.80
42095;DHT22;27753;55.724;37.612;2023-04-01T10:31:14;17.30;45.10
42095;DHT22;27753;55.724;37.612;2023-04-01T10:36:57;14.90;50.20
42095;DHT22;27753;55.724;37.612;2023-04-01T10:59:11;10.90;60.80
42095;DHT22;27753;55.724;37.612;2023-04-01T11:02:09;10.60;61.50
42095;DHT22;27753;55.724;37.612;2023-04-01T11:13:41;9.80;63.70
42095;DHT22;27753;55.724;37.612;2023-04-01T11:19:40;10.00;64.20
42095;DHT22;27753;55.724;37.612;2023-04-01T11:33:50;10.30;63.80
42095;DHT22;27753;55.724;37.612;2023-04-01T11:36:37;10.50;64.50
42095;DHT22;27753;55.724;37.612;2023-04-01T11:44:42;11.30;62.70
42095;DHT22;27753;55.724;37.612;2023-04-01T11:47:42;11.30;61.50
42095;DHT22;27753;55.724;37.612;2023-04-01T11:53:04;10.90;63.00
42095;DHT22;27753;55.724;37.612;2023-04-01T12:01:17;11.40;62.50
42095;DHT22;27753;55.724;37.612;2023-04-01T12:10:01;11.00;63.30
42095;DHT22;27753;55.724;37.612;2023-04-01T12:15:44;11.30;62.50
42095;DHT22;27753;55.724;37.612;2023-04-01T12:18:25;11.30;62.50
42095;DHT22;27753;55.724;37.612;2023-04-01T12:21:17;11.10;62.00
42095;DHT22;27753;55.724;37.612;2023-04-01T12:24:00;10.80;61.90
42095;DHT22;27753;55.724;37.612;2023-04-01T12:29:34;10.50;62.50
42095;DHT22;27753;55.724;37.612;2023-04-01T12:53:03;10.40;62.00
42095;DHT22;27753;55.724;37.612;2023-04-01T12:55:41;10.40;62.30
42095;DHT22;27753;55.724;37.612;2023-04-01T13:04:04;10.90;61.30
42095;DHT22;27753;55.724;37.612;2023-04-01T13:09:22;11.10;61.30
42095;DHT22;27753;55.724;37.612;2023-04-01T13:12:04;11.00;61.30
42095;DHT22;27753;55.724;37.612;2023-04-01T13:14:50;11.00;62.00
42095;DHT22;27753;55.724;37.612;2023-04-01T13:17:58;10.80;62.40
42095;DHT22;27753;55.724;37.612;2023-04-01T13:23:20;10.50;64.10
42095;DHT22;27753;55.724;37.612;2023-04-01T13:26:06;10.30;65.10
42095;DHT22;27753;55.724;37.612;2023-04-01T13:31:37;10.00;66.50
42095;DHT22;27753;55.724;37.612;2023-04-01T13:34:17;9.80;67.70
42095;DHT22;27753;55.724;37.612;2023-04-01T13:36:50;9.60;68.60
42095;DHT22;27753;55.724;37.612;2023-04-01T13:39:29;9.60;69.40
42095;DHT22;27753;55.724;37.612;2023-04-01T13:47:47;9.70;70.30
42095;DHT22;27753;55.724;37.612;2023-04-01T14:07:32;9.00;72.60
42095;DHT22;27753;55.724;37.612;2023-04-01T14:27:00;8.90;73.50
42095;DHT22;27753;55.724;37.612;2023-04-01T14:48:51;8.60;80.40
42095;DHT22;27753;55.724;37.612;2023-04-01T14:51:34;8.40;81.10
42095;DHT22;27753;55.724;37.612;2023-04-01T14:54:18;8.40;82.00
42095;DHT22;27753;55.724;37.612;2023-04-01T14:57:05;8.40;82.40
42095;DHT22;27753;55.724;37.612;2023-04-01T14:59:48;8.40;82.80
42095;DHT22;27753;55.724;37.612;2023-04-01T15:08:08;8.20;86.20
42095;DHT22;27753;55.724;37.612;2023-04-01T15:13:19;7.30;91.50
42095;DHT22;27753;55.724;37.612;2023-04-01T15:31:54;7.00;94.40
42095;DHT22;27753;55.724;37.612;2023-04-01T15:46:19;7.30;94.80
42095;DHT22;27753;55.724;37.612;2023-04-01T15:57:03;7.60;94.60
42095;DHT22;27753;55.724;37.612;2023-04-01T16:21:12;7.90;94.90
42095;DHT22;27753;55.724;37.612;2023-04-01T16:29:03;7.50;96.00
42095;DHT22;27753;55.724;37.612;2023-04-01T16:34:44;7.20;96.70
42095;DHT22;27753;55.724;37.612;2023-04-01T16:37:21;7.20;97.00
42095;DHT22;27753;55.724;37.612;2023-04-01T16:43:30;7.10;97.60
42095;DHT22;27753;55.724;37.612;2023-04-01T16:51:48;7.00;98.30
42095;DHT22;27753;55.724;37.612;2023-04-01T16:56:50;7.10;98.50
42095;DHT22;27753;55.724;37.612;2023-04-01T16:59:37;7.10;98.60
42095;DHT22;27753;55.724;37.612;2023-04-01T17:04:47;7.20;98.70
42095;DHT22;27753;55.724;37.612;2023-04-01T17:13:46;7.30;98.60
42095;DHT22;27753;55.724;37.612;2023-04-01T17:21:16;7.30;98.60
42095;DHT22;27753;55.724;37.612;2023-04-01T17:23:58;7.30;98.70
42095;DHT22;27753;55.724;37.612;2023-04-01T17:30:26;7.40;98.50
42095;DHT22;27753;55.724;37.612;2023-04-01T17:40:57;7.50;98.40
42095;DHT22;27753;55.724;37.612;2023-04-01T17:45:58;7.50;98.40
42095;DHT22;27753;55.724;37.612;2023-04-01T17:51:40;7.40;98.40
42095;DHT22;27753;55.724;37.612;2023-04-01T18:10:41;7.50;98.50
42095;DHT22;27753;55.724;37.612;2023-04-01T18:21:53;7.30;98.70
42095;DHT22;27753;55.724;37.612;2023-04-01T18:29:40;7.30;98.90
42095;DHT22;27753;55.724;37.612;2023-04-01T18:32:24;7.30;98.80
42095;DHT22;27753;55.724;37.612;2023-04-01T18:38:16;7.20;99.10
42095;DHT22;27753;55.724;37.612;2023-04-01T18:41:14;7.20;99.50
42095;DHT22;27753;55.724;37.612;2023-04-01T18:47:05;7.20;99.30
42095;DHT22;27753;55.724;37.612;2023-04-01T18:49:44;7.20;99.40
42095;DHT22;27753;55.724;37.612;2023-04-01T18:52:33;7.20;99.40
42095;DHT22;27753;55.724;37.612;2023-04-01T18:57:52;7.30;99.50
42095;DHT22;27753;55.724;37.612;2023-04-01T19:00:32;7.30;99.50
42095;DHT22;27753;55.724;37.612;2023-04-01T19:03:02;7.30;99.60
42095;DHT22;27753;55.724;37.612;2023-04-01T19:05:38;7.30;99.60
42095;DHT22;27753;55.724;37.612;2023-04-01T19:08:24;7.30;99.50
42095;DHT22;27753;55.724;37.612;2023-04-01T19:11:10;7.30;99.60
42095;DHT22;27753;55.724;37.612;2023-04-01T19:13:51;7.30;99.60
42095;DHT22;27753;55.724;37.612;2023-04-01T19:19:42;7.30;99.80
42095;DHT22;27753;55.724;37.612;2023-04-01T19:22:02;7.20;99.80
42095;DHT22;27753;55.724;37.612;2023-04-01T19:27:45;7.30;99.90
42095;DHT22;27753;55.724;37.612;2023-04-01T19:30:45;7.30;99.90
42095;DHT22;27753;55.724;37.612;2023-04-01T19:36:08;7.30;99.90
42095;DHT22;27753;55.724;37.612;2023-04-01T19:38:42;7.20;99.90
42095;DHT22;27753;55.724;37.612;2023-04-01T19:49:21;7.00;99.90
42095;DHT22;27753;55.724;37.612;2023-04-01T19:55:02;7.00;99.90
42095;DHT22;27753;55.724;37.612;2023-04-01T19:57:51;7.00;99.90
42095;DHT22;27753;55.724;37.612;2023-04-01T20:19:41;7.10;99.90
42095;DHT22;27753;55.724;37.612;2023-04-01T20:28:56;7.20;99.90
42095;DHT22;27753;55.724;37.612;2023-04-01T20:31:41;7.10;99.90
42095;DHT22;27753;55.724;37.612;2023-04-01T20:51:29;7.20;99.90
42095;DHT22;27753;55.724;37.612;2023-04-01T20:57:00;7.20;99.90
42095;DHT22;27753;55.724;37.612;2023-04-01T20:59:58;7.20;99.90
42095;DHT22;27753;55.724;37.612;2023-04-01T21:08:51;7.10;99.90
42095;DHT22;27753;55.724;37.612;2023-04-01T21:17:52;7.20;99.90
42095;DHT22;27753;55.724;37.612;2023-04-01T21:23:15;7.20;99.90
42095;DHT22;27753;55.724;37.612;2023-04-01T21:26:04;7.20;99.90
42095;DHT22;27753;55.724;37.612;2023-04-01T21:31:59;7.20;99.90
42095;DHT22;27753;55.724;37.612;2023-04-01T21:34:43;7.20;99.90
42095;DHT22;27753;55.724;37.612;2023-04-01T21:37:20;7.30;99.90
42095;DHT22;27753;55.724;37.612;2023-04-01T21:48:29;7.30;99.90
42095;DHT22;27753;55.724;37.612;2023-04-01T22:05:17;7.30;99.90
42095;DHT22;27753;55.724;37.612;2023-04-01T22:13:11;7.40;99.90
42095;DHT22;27753;55.724;37.612;2023-04-01T22:16:06;7.50;99.90
42095;DHT22;27753;55.724;37.612;2023-04-01T22:18:50;7.50;99.90
42095;DHT22;27753;55.724;37.612;2023-04-01T22:26:53;7.70;99.90
42095;DHT22;27753;55.724;37.612;2023-04-01T22:29:42;7.70;99.90
42095;DHT22;27753;55.724;37.612;2023-04-01T22:32:12;7.80;99.90
42095;DHT22;27753;55.724;37.612;2023-04-01T22:42:51;7.70;99.90
42095;DHT22;27753;55.724;37.612;2023-04-01T22:45:33;7.70;99.90
42095;DHT22;27753;55.724;37.612;2023-04-01T22:48:11;7.80;99.90
42095;DHT22;27753;55.724;37.612;2023-04-01T22:51:04;7.80;99.90
42095;DHT22;27753;55.724;37.612;2023-04-01T22:56:37;7.80;99.90
42095;DHT22;27753;55.724;37.612;2023-04-01T22:59:10;7.80;99.90
42095;DHT22;27753;55.724;37.612;2023-04-01T23:01:57;7.80;99.90
42095;DHT22;27753;55.724;37.612;2023-04-01T23:04:31;7.70;99.90
42095;DHT22;27753;55.724;37.612;2023-04-01T23:07:14;7.70;99.90
42095;DHT22;27753;55.724;37.612;2023-04-01T23:09:47;7.70;99.90
42095;DHT22;27753;55.724;37.612;2023-04-01T23:12:15;7.70;99.90
42095;DHT22;27753;55.724;37.612;2023-04-01T23:14:51;7.70;99.90
42095;DHT22;27753;55.724;37.612;2023-04-01T23:20:14;7.60;99.90
42095;DHT22;27753;55.724;37.612;2023-04-01T23:23:01;7.50;99.90
42095;DHT22;27753;55.724;37.612;2023-04-01T23:26:00;7.50;99.90
42095;DHT22;27753;55.724;37.612;2023-04-01T23:28:41;7.50;99.90
42095;DHT22;27753;55.724;37.612;2023-04-01T23:31:44;7.50;99.90
42095;DHT22;27753;55.724;37.612;2023-04-01T23:34:24;7.50;99.90
42095;DHT22;27753;55.724;37.612;2023-04-01T23:36:57;7.50;99.90
42095;DHT22;27753;55.724;37.612;2023-04-01T23:39:29;7.50;99.90
42095;DHT22;27753;55.724;37.612;2023-04-01T23:42:04;7.50;99.90
42095;DHT22;27753;55.724;37.612;2023-04-01T23:44:32;7.50;99.90
42095;DHT22;27753;55.724;37.612;2023-04-01T23:46:59;7.50;99.90
42095;DHT22;27753;55.724;37.612;2023-04-01T23:49:41;7.50;99.90
42095;DHT22;27753;55.724;37.612;2023-04-01T23:52:20;7.60;99.90
42095;DHT22;27753;55.724;37.612;2023-04-01T23:54:54;7.50;99.90
42095;DHT22;27753;55.724;37.612;2023-04-01T23:57:31;7.50;99.90
